Time;durP1;ratioP1;P1;durP2;ratioP2;P2;SDS_P1;SDS_P2;PMS_P1;PMS_P2;Temp;Humidity;BMP_temperature;BMP_pressure;BME280_temperature;BME280_humidity;BME280_pressure;Samples;Min_cycle;Max_cycle;Signal;HPM_P1;HPM_P2
2023/04/17 00:00:11;;;;;;;40.40;19.45;;;;;;;-142.75;100.00;78232.03;5015635;28;20037;-68
2023/04/17 00:02:38;;;;;;;43.60;21.35;;;;;;;-142.75;100.00;78234.00;4993262;28;20038;-68
2023/04/17 00:05:07;;;;;;;38.22;21.10;;;;;;;-142.75;100.00;78245.81;4995810;28;20026;-68
2023/04/17 00:07:33;;;;;;;41.85;21.20;;;;;;;-142.75;100.00;78253.69;4995632;28;20030;-68
2023/04/17 00:09:58;;;;;;;43.40;21.02;;;;;;;-142.75;100.00;78239.91;4994539;28;20116;-68
2023/04/17 00:12:24;;;;;;;35.55;19.60;;;;;;;-142.75;100.00;78261.56;4995692;28;20101;-68
2023/04/17 00:14:49;;;;;;;38.15;20.25;;;;;;;-142.75;100.00;78243.84;4995388;28;20034;-68
2023/04/17 00:17:14;;;;;;;37.33;19.65;;;;;;;-142.75;100.00;78247.78;4995337;28;20030;-68
2023/04/17 00:19:39;;;;;;;36.58;19.02;;;;;;;-142.75;100.00;78237.94;4995645;28;20054;-68
2023/04/17 00:22:05;;;;;;;46.73;21.03;;;;;;;-142.75;100.00;78257.63;4995653;28;20026;-68
2023/04/17 00:24:30;;;;;;;38.22;20.13;;;;;;;-142.75;100.00;78251.72;4994200;28;20478;-68
2023/04/17 00:26:56;;;;;;;33.42;18.88;;;;;;;-142.75;100.00;78247.78;4995211;28;20076;-69
2023/04/17 00:29:21;;;;;;;43.70;20.27;;;;;;;-142.75;100.00;78245.81;4995420;28;20118;-68
2023/04/17 00:31:46;;;;;;;36.33;17.88;;;;;;;-142.75;100.00;78259.59;4995303;28;20105;-68
2023/04/17 00:34:12;;;;;;;37.72;18.85;;;;;;;-142.75;100.00;78330.50;4993897;28;20034;-68
2023/04/17 00:36:37;;;;;;;35.75;17.90;;;;;;;-142.75;100.00;78354.13;4995178;28;20037;-68
2023/04/17 00:39:02;;;;;;;39.43;19.00;;;;;;;-142.75;100.00;78344.28;4995175;28;20034;-68
2023/04/17 00:41:28;;;;;;;39.80;19.27;;;;;;;-142.75;100.00;78322.63;4995230;28;20042;-68
2023/04/17 00:43:53;;;;;;;38.03;19.73;;;;;;;-142.75;100.00;78300.97;4995096;28;20037;-68
2023/04/17 00:46:18;;;;;;;45.10;20.23;;;;;;;-142.75;100.00;78293.06;4995127;28;20348;-68
2023/04/17 00:48:44;;;;;;;38.43;19.43;;;;;;;-142.75;100.00;78289.13;4993678;28;20560;-68
2023/04/17 00:51:10;;;;;;;42.63;19.20;;;;;;;-142.75;100.00;78267.47;4993863;28;20418;-68
2023/04/17 00:53:35;;;;;;;43.88;20.55;;;;;;;-142.75;100.00;78267.47;4994852;28;20509;-68
2023/04/17 00:56:05;;;;;;;41.20;20.85;;;;;;;-142.75;100.00;78247.78;4992718;28;20466;-68
2023/04/17 00:58:31;;;;;;;42.10;21.33;;;;;;;-142.75;100.00;78247.78;4994700;28;20056;-68
2023/04/17 01:00:57;;;;;;;40.83;19.83;;;;;;;-142.75;100.00;78239.91;4994795;28;20096;-68
2023/04/17 01:03:22;;;;;;;40.03;19.48;;;;;;;-142.75;100.00;78251.72;4994717;28;20510;-68
2023/04/17 01:05:50;;;;;;;44.45;18.98;;;;;;;-142.75;100.00;78271.41;4994817;28;20105;-68
2023/04/17 01:08:16;;;;;;;38.40;19.83;;;;;;;-142.75;100.00;78291.09;4994487;28;20545;-68
2023/04/17 01:10:41;;;;;;;38.60;18.55;;;;;;;-142.75;100.00;78267.47;4993362;28;20130;-68
2023/04/17 01:13:07;;;;;;;37.20;17.95;;;;;;;-142.75;100.00;78263.53;4993201;28;20038;-68
2023/04/17 01:15:34;;;;;;;36.03;18.13;;;;;;;-142.75;100.00;78267.47;4994522;28;20034;-68
2023/04/17 01:18:00;;;;;;;38.50;18.70;;;;;;;-142.75;100.00;78277.31;4994367;28;20031;-68
2023/04/17 01:20:29;;;;;;;34.57;17.63;;;;;;;-142.75;100.00;78275.34;4994566;28;20549;-68
2023/04/17 01:22:58;;;;;;;34.08;17.55;;;;;;;-142.75;100.00;78267.47;4994417;28;20030;-68
2023/04/17 01:25:25;;;;;;;33.42;16.70;;;;;;;-142.75;100.00;78285.19;4994402;28;20540;-68
2023/04/17 01:27:50;;;;;;;32.22;15.38;;;;;;;-142.75;100.00;78279.28;4992939;28;20026;-68
2023/04/17 01:30:16;;;;;;;37.20;16.48;;;;;;;-142.75;100.00;78279.28;4994251;28;20033;-68
2023/04/17 01:32:41;;;;;;;33.83;16.30;;;;;;;-142.75;100.00;78277.31;4994383;28;20026;-68
2023/04/17 01:35:07;;;;;;;32.92;15.27;;;;;;;-142.75;100.00;78283.22;4994094;28;20045;-68
2023/04/17 01:37:32;;;;;;;39.53;17.85;;;;;;;-142.75;100.00;78275.34;4993996;28;20057;-68
2023/04/17 01:39:58;;;;;;;38.90;18.17;;;;;;;-142.75;100.00;78267.47;5006036;28;20032;-68
2023/04/17 01:42:23;;;;;;;37.67;17.25;;;;;;;-142.75;100.00;78267.47;4996125;28;20481;-68
2023/04/17 01:44:49;;;;;;;35.50;17.48;;;;;;;-142.75;100.00;78285.19;5013507;28;20478;-68
2023/04/17 01:47:14;;;;;;;39.53;17.90;;;;;;;-142.75;100.00;78285.19;4995749;28;20054;-68
2023/04/17 01:49:40;;;;;;;40.35;16.92;;;;;;;-142.75;100.00;78279.28;4996028;28;20030;-68
2023/04/17 01:52:05;;;;;;;39.65;17.52;;;;;;;-142.75;100.00;78271.41;5013564;28;20393;-68
2023/04/17 01:54:30;;;;;;;37.17;18.63;;;;;;;-142.75;100.00;78277.31;5013250;28;20397;-68
2023/04/17 01:56:56;;;;;;;41.00;17.50;;;;;;;-142.75;100.00;78277.31;5013656;28;20072;-68
2023/04/17 01:59:22;;;;;;;41.35;17.10;;;;;;;-142.75;100.00;78291.09;5013335;28;20109;-68
2023/04/17 02:01:51;;;;;;;39.13;17.90;;;;;;;-142.75;100.00;78287.16;5013324;28;20057;-68
2023/04/17 02:04:16;;;;;;;42.17;17.80;;;;;;;-142.75;100.00;78289.13;5012940;28;20057;-68
2023/04/17 02:06:41;;;;;;;39.20;17.50;;;;;;;-142.75;100.00;78287.16;5013094;28;20445;-68
2023/04/17 02:09:07;;;;;;;39.92;18.45;;;;;;;-142.75;100.00;78285.19;5012935;28;20504;-68
2023/04/17 02:11:33;;;;;;;42.13;17.30;;;;;;;-142.75;100.00;78285.19;5013183;28;20053;-68
2023/04/17 02:13:58;;;;;;;38.13;17.60;;;;;;;-142.75;100.00;78293.06;5012914;28;20104;-68
2023/04/17 02:16:23;;;;;;;35.80;16.75;;;;;;;-142.75;100.00;78287.16;5012848;28;20500;-68
2023/04/17 02:18:50;;;;;;;32.90;15.83;;;;;;;-142.75;100.00;78310.81;5012850;28;20033;-68
2023/04/17 02:21:15;;;;;;;28.92;15.30;;;;;;;-142.75;100.00;78302.94;5013003;28;20124;-68
2023/04/17 02:23:41;;;;;;;32.88;14.57;;;;;;;-142.75;100.00;78291.09;5012749;28;20521;-68
2023/04/17 02:26:06;;;;;;;34.13;16.43;;;;;;;-142.75;100.00;78297.00;5011537;28;20120;-68
2023/04/17 02:28:31;;;;;;;26.30;14.70;;;;;;;-142.75;100.00;78287.16;5012744;28;20026;-68
2023/04/17 02:30:57;;;;;;;38.10;16.00;;;;;;;-142.75;100.00;78287.16;5012809;28;20033;-68
2023/04/17 02:33:23;;;;;;;32.30;14.82;;;;;;;-142.75;100.00;78283.22;5012624;28;20033;-68
2023/04/17 02:35:48;;;;;;;33.75;15.60;;;;;;;-142.75;100.00;78289.13;5012714;28;20445;-67
2023/04/17 02:38:13;;;;;;;26.73;14.30;;;;;;;-142.75;100.00;78295.06;4994884;28;20037;-68
2023/04/17 02:40:39;;;;;;;31.77;15.50;;;;;;;-142.75;100.00;78310.81;4995023;28;20029;-68
2023/04/17 02:43:04;;;;;;;35.27;15.77;;;;;;;-142.75;100.00;78324.59;5011211;28;20025;-68
2023/04/17 02:45:29;;;;;;;29.13;14.27;;;;;;;-142.75;100.00;78304.91;5012563;28;20025;-68
2023/04/17 02:47:55;;;;;;;29.23;13.77;;;;;;;-142.75;100.00;78295.06;4994641;28;20029;-68
2023/04/17 02:50:21;;;;;;;27.40;13.83;;;;;;;-142.75;100.00;78304.91;5012519;28;20030;-68
2023/04/17 02:52:46;;;;;;;31.65;14.35;;;;;;;-142.75;100.00;78320.66;5012279;28;20508;-68
2023/04/17 02:55:12;;;;;;;27.13;15.03;;;;;;;-142.75;100.00;78328.53;5012322;28;20041;-68
2023/04/17 02:57:37;;;;;;;31.83;15.03;;;;;;;-142.75;100.00;78314.75;5011988;28;20034;-68
2023/04/17 03:00:06;;;;;;;33.03;14.77;;;;;;;-142.75;100.00;78295.06;5012287;28;20037;-68
2023/04/17 03:02:32;;;;;;;30.83;15.77;;;;;;;-142.75;100.00;78291.09;5012329;28;20033;-68
2023/04/17 03:05:00;;;;;;;37.03;17.20;;;;;;;-142.75;100.00;78297.00;5012211;28;20053;-68
2023/04/17 03:07:26;;;;;;;38.35;16.50;;;;;;;-142.75;100.00;78316.72;5011850;28;20382;-68
2023/04/17 03:09:52;;;;;;;32.33;15.63;;;;;;;-142.75;100.00;78289.13;5012212;28;20060;-68
2023/04/17 03:12:19;;;;;;;32.67;15.87;;;;;;;-142.75;100.00;78291.09;5012160;28;20062;-68
2023/04/17 03:14:44;;;;;;;32.40;14.77;;;;;;;-142.75;100.00;78291.09;5011912;28;20018;-68
2023/04/17 03:17:10;;;;;;;29.37;14.40;;;;;;;-142.75;100.00;78293.06;5011790;28;20033;-68
2023/04/17 03:19:36;;;;;;;33.58;15.25;;;;;;;-142.75;100.00;78306.88;5011603;28;20025;-68
2023/04/17 03:22:02;;;;;;;27.50;13.90;;;;;;;-142.75;100.00;78302.94;5011941;28;20557;-68
2023/04/17 03:24:28;;;;;;;28.52;13.75;;;;;;;-142.75;100.00;78334.44;5011952;28;20037;-68
2023/04/17 03:26:53;;;;;;;29.52;11.90;;;;;;;-142.75;100.00;78334.44;5011758;28;20038;-67
2023/04/17 03:29:19;;;;;;;26.40;13.30;;;;;;;-142.75;100.00;78318.69;4994299;28;20084;-67
2023/04/17 03:31:44;;;;;;;30.13;13.98;;;;;;;-142.75;100.00;78302.94;4994281;28;20034;-68
2023/04/17 03:34:09;;;;;;;28.63;13.88;;;;;;;-142.75;100.00;78302.94;4994206;28;20030;-67
2023/04/17 03:36:35;;;;;;;27.92;12.50;;;;;;;-142.75;100.00;78300.97;5011843;28;20036;-68
2023/04/17 03:39:01;;;;;;;26.27;13.48;;;;;;;-142.75;100.00;78295.06;5011734;28;20597;-68
2023/04/17 03:41:26;;;;;;;26.02;13.60;;;;;;;-142.75;100.00;78291.09;5011846;28;20059;-68
2023/04/17 03:43:51;;;;;;;27.95;13.15;;;;;;;-142.75;100.00;78322.63;5011794;28;20075;-68
2023/04/17 03:46:17;;;;;;;21.55;11.60;;;;;;;-142.75;100.00;78318.69;5011759;28;20526;-68
2023/04/17 03:48:42;;;;;;;27.98;13.55;;;;;;;-142.75;100.00;78304.91;4994032;28;20039;-68
2023/04/17 03:51:07;;;;;;;29.30;13.10;;;;;;;-142.75;100.00;78318.69;5011640;28;20033;-68
2023/04/17 03:53:33;;;;;;;29.95;15.15;;;;;;;-142.75;100.00;78289.13;5011612;28;20040;-68
2023/04/17 03:55:58;;;;;;;28.88;13.90;;;;;;;-142.75;100.00;78285.19;5011713;28;20037;-68
2023/04/17 03:58:24;;;;;;;29.25;14.27;;;;;;;-142.75;100.00;78283.22;5011358;28;20068;-68
2023/04/17 04:00:54;;;;;;;27.45;14.15;;;;;;;-142.75;100.00;78275.34;5011757;28;20105;-68
2023/04/17 04:03:19;;;;;;;24.10;12.30;;;;;;;-142.75;100.00;78283.22;5011657;28;20079;-68
2023/04/17 04:05:45;;;;;;;30.88;13.55;;;;;;;-142.75;100.00;78275.34;5011607;28;20057;-68
2023/04/17 04:08:10;;;;;;;25.48;13.18;;;;;;;-142.75;100.00;78283.22;5011339;28;20026;-68
2023/04/17 04:10:36;;;;;;;25.80;12.43;;;;;;;-142.75;100.00;78285.19;4994088;28;20025;-68
2023/04/17 04:13:01;;;;;;;23.38;11.85;;;;;;;-142.75;100.00;78310.81;5011456;28;20026;-68
2023/04/17 04:15:26;;;;;;;22.52;11.95;;;;;;;-142.75;100.00;78293.06;5011432;28;20044;-68
2023/04/17 04:17:51;;;;;;;27.57;14.00;;;;;;;-142.75;100.00;78308.84;5011308;28;20113;-68
2023/04/17 04:20:17;;;;;;;28.83;13.35;;;;;;;-142.75;100.00;78318.69;5011496;28;20148;-68
2023/04/17 04:22:43;;;;;;;23.50;12.57;;;;;;;-142.75;100.00;78314.75;5011469;28;20061;-68
2023/04/17 04:25:09;;;;;;;23.20;12.15;;;;;;;-142.75;100.00;78312.78;5011391;28;20080;-68
2023/04/17 04:27:34;;;;;;;24.48;12.55;;;;;;;-142.75;100.00;78299.00;5011169;28;20029;-68
2023/04/17 04:30:00;;;;;;;26.50;12.65;;;;;;;-142.75;100.00;78322.63;5011567;28;20405;-68
2023/04/17 04:32:27;;;;;;;22.63;12.10;;;;;;;-142.75;100.00;78320.66;5014806;28;20033;-68
2023/04/17 04:34:57;;;;;;;24.13;12.53;;;;;;;-142.75;100.00;78295.06;4996534;28;20026;-69
2023/04/17 04:37:28;;;;;;;24.00;12.57;;;;;;;-142.75;100.00;78314.75;5015615;28;20424;-68
2023/04/17 04:40:00;;;;;;;26.65;12.23;;;;;;;-142.75;100.00;78328.53;5014976;28;20029;-68
2023/04/17 04:42:28;;;;;;;25.60;12.40;;;;;;;-142.75;100.00;78316.72;5014993;28;20493;-68
2023/04/17 04:44:54;;;;;;;26.15;12.90;;;;;;;-142.75;100.00;78302.94;5014670;28;20026;-68
2023/04/17 04:47:19;;;;;;;26.63;13.03;;;;;;;-142.75;100.00;78316.72;5014483;28;20026;-68
2023/04/17 04:49:44;;;;;;;26.27;13.65;;;;;;;-142.75;100.00;78312.78;4997138;28;20390;-68
2023/04/17 04:52:10;;;;;;;27.20;13.18;;;;;;;-142.75;100.00;78306.88;4996460;28;20451;-68
2023/04/17 04:54:35;;;;;;;27.20;13.20;;;;;;;-142.75;100.00;78299.00;5013788;28;20092;-67
2023/04/17 04:57:01;;;;;;;27.60;13.48;;;;;;;-142.75;100.00;78297.00;5013643;28;20113;-68
2023/04/17 04:59:26;;;;;;;30.02;13.30;;;;;;;-142.75;100.00;78318.69;4994791;28;20030;-68
2023/04/17 05:01:52;;;;;;;32.30;14.93;;;;;;;-142.75;100.00;78306.88;4994860;28;20026;-68
2023/04/17 05:04:17;;;;;;;28.02;15.10;;;;;;;-142.75;100.00;78314.75;4994674;28;20030;-68
2023/04/17 05:06:42;;;;;;;30.73;13.60;;;;;;;-142.75;100.00;78332.47;4994754;28;20113;-68
2023/04/17 05:09:07;;;;;;;32.90;14.57;;;;;;;-142.75;100.00;78334.44;4977247;28;20022;-68
2023/04/17 05:11:33;;;;;;;30.27;15.30;;;;;;;-142.75;100.00;78346.25;4994762;28;20034;-66
2023/04/17 05:13:58;;;;;;;32.60;14.57;;;;;;;-142.75;100.00;78342.31;4994593;28;20030;-65
2023/04/17 05:16:24;;;;;;;30.98;14.85;;;;;;;-142.75;100.00;78346.25;4994695;28;20738;-66
2023/04/17 05:18:49;;;;;;;30.77;14.17;;;;;;;-142.75;100.00;78350.19;4994355;28;20033;-69
2023/04/17 05:21:14;;;;;;;29.07;14.30;;;;;;;-142.75;100.00;78334.44;4994943;28;20026;-69
2023/04/17 05:23:40;;;;;;;32.50;15.00;;;;;;;-142.75;100.00;78334.44;4994910;28;20060;-68
2023/04/17 05:26:06;;;;;;;31.42;14.77;;;;;;;-142.75;100.00;78326.56;4998554;28;20018;-68
2023/04/17 05:28:31;;;;;;;31.63;14.23;;;;;;;-142.75;100.00;78322.63;5014155;28;20037;-68
2023/04/17 05:30:57;;;;;;;32.60;15.60;;;;;;;-142.75;100.00;78367.91;5013831;28;20036;-69
2023/04/17 05:33:22;;;;;;;32.08;13.45;;;;;;;-142.75;100.00;78334.44;4996341;28;20542;-69
2023/04/17 05:35:48;;;;;;;27.53;14.03;;;;;;;-142.75;100.00;78342.31;5014037;28;20032;-69
2023/04/17 05:38:13;;;;;;;26.95;13.25;;;;;;;-142.75;100.00;78373.81;5013724;28;20022;-69
2023/04/17 05:40:38;;;;;;;31.10;13.85;;;;;;;-142.75;100.00;78367.91;5013774;28;20033;-68
2023/04/17 05:43:06;;;;;;;23.83;14.25;;;;;;;-142.75;100.00;78346.25;5013265;28;20397;-68
2023/04/17 05:45:31;;;;;;;26.27;14.48;;;;;;;-142.75;100.00;78334.44;4996411;28;20417;-69
2023/04/17 05:47:57;;;;;;;30.98;14.68;;;;;;;-142.75;100.00;78326.56;5013461;28;20052;-68
2023/04/17 05:50:22;;;;;;;28.02;13.60;;;;;;;-142.75;100.00;78318.69;5013811;28;20040;-69
2023/04/17 05:52:48;;;;;;;30.98;14.25;;;;;;;-142.75;100.00;78308.84;5013887;28;20100;-69
2023/04/17 05:55:13;;;;;;;26.13;14.45;;;;;;;-142.75;100.00;78318.69;4996014;28;20109;-69
2023/04/17 05:57:38;;;;;;;25.23;13.88;;;;;;;-142.75;100.00;78310.81;5013859;28;20034;-69
2023/04/17 06:00:11;;;;;;;25.60;14.18;;;;;;;-142.75;100.00;78302.94;5014062;28;20033;-69
2023/04/17 06:02:39;;;;;;;27.65;13.82;;;;;;;-142.75;100.00;78295.06;5013926;28;20061;-69
2023/04/17 06:05:05;;;;;;;29.38;14.82;;;;;;;-142.75;100.00;78306.88;5013668;28;20037;-69
2023/04/17 06:07:34;;;;;;;28.13;14.52;;;;;;;-142.75;100.00;78314.75;5013126;28;20033;-68
2023/04/17 06:10:00;;;;;;;28.40;15.50;;;;;;;-142.75;100.00;78314.75;5013317;28;20029;-69
2023/04/17 06:12:25;;;;;;;30.38;15.98;;;;;;;-142.75;100.00;78314.75;4995656;28;20061;-69
2023/04/17 06:14:51;;;;;;;29.85;15.35;;;;;;;-142.75;100.00;78293.06;5013108;28;20426;-68
2023/04/17 06:17:16;;;;;;;32.53;14.82;;;;;;;-142.75;100.00;78279.28;4995625;28;20021;-69
2023/04/17 06:19:41;;;;;;;28.08;14.15;;;;;;;-142.75;100.00;78263.53;5012921;28;20509;-68
2023/04/17 06:22:07;;;;;;;27.35;14.50;;;;;;;-142.75;100.00;78273.38;5012694;28;20060;-68
2023/04/17 06:24:32;;;;;;;33.33;15.52;;;;;;;-142.75;100.00;78259.59;5013266;28;20076;-68
2023/04/17 06:26:59;;;;;;;27.17;14.65;;;;;;;-142.75;100.00;78273.38;5013953;28;20073;-68
2023/04/17 06:29:25;;;;;;;26.83;14.43;;;;;;;-142.75;100.00;78275.34;4995106;28;20026;-68
2023/04/17 06:31:50;;;;;;;35.20;15.55;;;;;;;-142.75;100.00;78263.53;5013098;28;20080;-68
2023/04/17 06:34:15;;;;;;;25.40;14.88;;;;;;;-142.75;100.00;78277.31;5014045;28;20401;-68
2023/04/17 06:36:41;;;;;;;32.92;14.30;;;;;;;-142.75;100.00;78281.25;5014060;28;20041;-68
2023/04/17 06:39:06;;;;;;;30.70;15.32;;;;;;;-142.75;100.00;78275.34;5013534;28;20049;-68
2023/04/17 06:41:31;;;;;;;26.05;14.63;;;;;;;-142.75;100.00;78261.56;4995591;28;20050;-67
2023/04/17 06:43:57;;;;;;;27.92;14.07;;;;;;;-142.75;100.00;78259.59;5012508;28;20482;-67
2023/04/17 06:46:22;;;;;;;27.92;14.57;;;;;;;-142.75;100.00;78261.56;4994856;28;20100;-67
2023/04/17 06:48:50;;;;;;;27.45;14.55;;;;;;;-142.75;100.00;78257.63;5012353;28;20030;-68
2023/04/17 06:51:19;;;;;;;26.90;13.88;;;;;;;-142.75;100.00;78271.41;5012504;28;20382;-68
2023/04/17 06:53:45;;;;;;;26.75;14.68;;;;;;;-142.75;100.00;78257.63;4993541;28;20049;-68
2023/04/17 06:56:10;;;;;;;26.23;14.30;;;;;;;-142.75;100.00;78263.53;4994267;28;20029;-68
2023/04/17 06:58:42;;;;;;;26.15;14.50;;;;;;;-142.75;100.00;78267.47;5012213;28;20030;-68
2023/04/17 07:01:08;;;;;;;25.90;14.48;;;;;;;-142.75;100.00;78299.00;5012446;28;20504;-68
2023/04/17 07:03:33;;;;;;;25.02;14.23;;;;;;;-142.75;100.00;78277.31;5012009;28;20026;-68
2023/04/17 07:05:58;;;;;;;30.58;14.30;;;;;;;-142.75;100.00;78275.34;5012367;28;20030;-68
2023/04/17 07:08:23;;;;;;;30.00;14.95;;;;;;;-142.75;100.00;78275.34;5011645;28;20018;-68
2023/04/17 07:10:49;;;;;;;30.60;14.75;;;;;;;-142.75;100.00;78259.59;5009258;28;20446;-68
2023/04/17 07:13:14;;;;;;;24.13;13.95;;;;;;;-142.75;100.00;78287.16;4992705;28;20056;-68
2023/04/17 07:15:40;;;;;;;24.85;14.32;;;;;;;-142.75;100.00;78275.34;4994029;28;20041;-68
2023/04/17 07:18:05;;;;;;;29.10;14.77;;;;;;;-142.75;100.00;78287.16;5006810;28;20022;-68
2023/04/17 07:20:30;;;;;;;27.95;15.65;;;;;;;-142.75;100.00;78322.63;4994105;28;20037;-68
2023/04/17 07:22:56;;;;;;;26.95;13.90;;;;;;;-142.75;100.00;78293.06;5011386;28;20025;-68
2023/04/17 07:25:21;;;;;;;30.45;14.50;;;;;;;-142.75;100.00;78302.94;5011595;28;20022;-68
2023/04/17 07:27:46;;;;;;;26.23;14.48;;;;;;;-142.75;100.00;78302.94;5002043;28;20026;-68
2023/04/17 07:30:12;;;;;;;26.40;15.02;;;;;;;-142.75;100.00;78295.06;5002600;28;20083;-68
2023/04/17 07:32:37;;;;;;;31.75;15.75;;;;;;;-142.75;100.00;78289.13;4994318;28;20104;-68
2023/04/17 07:35:03;;;;;;;31.73;14.70;;;;;;;-142.75;100.00;78316.72;4994128;28;20037;-68
2023/04/17 07:37:28;;;;;;;31.77;15.98;;;;;;;-142.75;100.00;78326.56;4993997;28;20057;-68
2023/04/17 07:39:54;;;;;;;29.05;15.32;;;;;;;-142.75;100.00;78314.75;5011878;28;20030;-68
2023/04/17 07:42:19;;;;;;;30.75;14.95;;;;;;;-142.75;100.00;78338.38;5010998;28;20541;-68
2023/04/17 07:44:45;;;;;;;31.77;15.98;;;;;;;-142.75;100.00;78314.75;4993565;28;20524;-68
2023/04/17 07:47:11;;;;;;;31.33;14.60;;;;;;;-142.75;100.00;78336.41;5011628;28;20058;-66
2023/04/17 07:49:38;;;;;;;33.13;16.10;;;;;;;-142.75;100.00;78346.25;5011748;28;20054;-68
2023/04/17 07:52:03;;;;;;;34.63;15.95;;;;;;;-142.75;100.00;78365.94;4993998;28;20382;-68
2023/04/17 07:54:30;;;;;;;30.90;14.93;;;;;;;-142.75;100.00;78373.81;4994013;28;20129;-68
2023/04/17 07:57:01;;;;;;;31.42;16.45;;;;;;;-142.75;100.00;78362.00;4989581;28;20017;-68
2023/04/17 07:59:26;;;;;;;34.05;16.08;;;;;;;-142.75;100.00;78367.91;5000025;28;20026;-68
2023/04/17 08:01:52;;;;;;;32.80;16.70;;;;;;;-142.75;100.00;78346.25;5010419;28;20069;-67
2023/04/17 08:04:17;;;;;;;32.40;16.52;;;;;;;-142.75;100.00;78348.22;5007589;28;20014;-67
2023/04/17 08:06:43;;;;;;;33.88;17.42;;;;;;;-142.75;100.00;78318.69;5014786;28;20514;-68
2023/04/17 08:09:08;;;;;;;36.03;18.05;;;;;;;-142.75;100.00;78318.69;5012455;28;20105;-68
2023/04/17 08:11:34;;;;;;;38.47;18.63;;;;;;;-142.75;100.00;78306.88;5009595;28;20106;-68
2023/04/17 08:13:59;;;;;;;34.55;17.20;;;;;;;-142.75;100.00;78299.00;5005744;28;20578;-68
2023/04/17 08:16:24;;;;;;;38.35;17.70;;;;;;;-142.75;100.00;78289.13;5004771;28;20026;-68
2023/04/17 08:18:49;;;;;;;36.75;17.88;;;;;;;-142.75;100.00;78277.31;5009089;28;20026;-68
2023/04/17 08:21:15;;;;;;;34.30;16.45;;;;;;;-142.75;100.00;78259.59;4996918;28;20109;-68
2023/04/17 08:23:40;;;;;;;38.70;18.38;;;;;;;-142.75;100.00;78273.38;5014606;28;20048;-67
2023/04/17 08:26:06;;;;;;;37.38;18.45;;;;;;;-142.75;100.00;78269.44;4996321;28;20378;-67
2023/04/17 08:28:31;;;;;;;32.75;17.73;;;;;;;-142.75;100.00;78263.53;5014598;28;20046;-68
2023/04/17 08:30:56;;;;;;;32.63;16.42;;;;;;;-142.75;100.00;78249.75;5011614;28;20485;-68
2023/04/17 08:33:22;;;;;;;31.85;16.40;;;;;;;-142.75;100.00;78247.78;5011947;28;20077;-68
2023/04/17 08:35:47;;;;;;;33.42;16.92;;;;;;;-142.75;100.00;78300.97;5008509;28;20521;-68
2023/04/17 08:38:13;;;;;;;33.45;16.75;;;;;;;-142.75;100.00;78277.31;4994963;28;20058;-68
2023/04/17 08:40:41;;;;;;;29.85;16.67;;;;;;;-142.75;100.00;78259.59;4995236;28;20101;-68
2023/04/17 08:43:19;;;;;;;30.42;16.27;;;;;;;-142.75;100.00;78245.81;4999672;28;20025;-68
2023/04/17 08:45:54;;;;;;;31.13;17.20;;;;;;;-142.75;100.00;78224.16;4997082;28;20025;-68
2023/04/17 08:48:22;;;;;;;32.17;16.92;;;;;;;-142.75;100.00;78291.09;4997034;28;20028;-68
2023/04/17 08:50:49;;;;;;;34.70;16.60;;;;;;;-142.75;100.00;78249.75;5014656;28;20030;-68
2023/04/17 08:53:16;;;;;;;31.75;17.13;;;;;;;-142.75;100.00;78295.06;5014389;28;20022;-68
2023/04/17 08:55:43;;;;;;;32.88;16.08;;;;;;;-142.75;100.00;78306.88;5014619;28;20032;-65
2023/04/17 08:58:08;;;;;;;33.05;17.63;;;;;;;-142.75;100.00;78316.72;5014368;28;20532;-67
2023/04/17 09:00:36;;;;;;;34.88;17.25;;;;;;;-142.75;100.00;78328.53;5011141;28;20029;-68
2023/04/17 09:03:06;;;;;;;39.97;17.77;;;;;;;-142.75;100.00;78326.56;5013406;28;20493;-68
2023/04/17 09:05:35;;;;;;;33.60;17.35;;;;;;;-142.75;100.00;78328.53;4995971;28;20481;-68
2023/04/17 09:08:10;;;;;;;39.25;18.92;;;;;;;-142.75;100.00;78320.66;5013217;28;20013;-68
2023/04/17 09:10:43;;;;;;;32.53;16.95;;;;;;;-142.75;100.00;78326.56;5014304;28;20026;-68
2023/04/17 09:13:11;;;;;;;36.45;18.17;;;;;;;-142.75;100.00;78330.50;5013795;28;20068;-67
2023/04/17 09:15:36;;;;;;;40.00;17.95;;;;;;;-142.75;100.00;78352.16;5014198;28;20417;-68
2023/04/17 09:18:02;;;;;;;39.47;19.77;;;;;;;-142.75;100.00;78362.00;4995660;28;20026;-68
2023/04/17 09:20:28;;;;;;;30.88;16.30;;;;;;;-142.75;100.00;78342.31;5013992;28;20224;-68
2023/04/17 09:23:04;;;;;;;35.65;17.65;;;;;;;-142.75;100.00;78322.63;5014581;28;20129;-68
2023/04/17 09:25:29;;;;;;;34.83;16.85;;;;;;;-142.75;100.00;78318.69;4997347;28;20028;-68
2023/04/17 09:28:10;;;;;;;40.00;18.75;;;;;;;-142.75;100.00;78312.78;5014330;28;20026;-68
2023/04/17 09:30:36;;;;;;;33.33;16.42;;;;;;;-142.75;100.00;78277.31;5014359;28;20405;-70
2023/04/17 09:33:03;;;;;;;34.55;18.08;;;;;;;-142.75;100.00;78293.06;5013372;28;20029;-71
2023/04/17 09:35:30;;;;;;;33.72;17.70;;;;;;;-142.75;100.00;78316.72;4996017;28;20084;-71
2023/04/17 09:37:58;;;;;;;35.65;16.90;;;;;;;-142.75;100.00;78310.81;5013438;28;20028;-69
2023/04/17 09:40:24;;;;;;;35.92;17.63;;;;;;;-142.75;100.00;78281.25;5013696;28;20018;-69
2023/04/17 09:43:01;;;;;;;32.95;16.60;;;;;;;-142.75;100.00;78312.78;5014089;28;20493;-68
2023/04/17 09:45:36;;;;;;;32.13;16.17;;;;;;;-142.75;100.00;78326.56;5011976;28;20010;-68
2023/04/17 09:48:11;;;;;;;35.38;17.92;;;;;;;-142.75;100.00;78314.75;4993565;28;20112;-69
2023/04/17 09:50:37;;;;;;;33.35;17.75;;;;;;;-142.75;100.00;78275.34;5013625;28;20030;-68
2023/04/17 09:53:03;;;;;;;34.65;17.02;;;;;;;-142.75;100.00;78232.03;5013455;28;20137;-68
2023/04/17 09:55:30;;;;;;;34.70;17.58;;;;;;;-142.75;100.00;78251.72;5012819;28;20060;-68
2023/04/17 09:57:57;;;;;;;33.17;16.50;;;;;;;-142.75;100.00;78230.06;5012800;28;20029;-68
2023/04/17 10:00:25;;;;;;;30.67;16.23;;;;;;;-142.75;100.00;78228.09;5011864;28;20018;-68
2023/04/17 10:02:52;;;;;;;29.70;16.65;;;;;;;-142.75;100.00;78180.81;5012545;28;20022;-68
2023/04/17 10:05:19;;;;;;;29.55;16.05;;;;;;;-142.75;100.00;78169.00;5012950;28;20025;-68
2023/04/17 10:07:45;;;;;;;26.90;14.73;;;;;;;-142.75;100.00;78228.09;5012703;28;20029;-68
2023/04/17 10:10:20;;;;;;;32.55;15.60;;;;;;;-142.75;100.00;78163.09;5012808;28;20013;-68
2023/04/17 10:12:47;;;;;;;28.48;15.25;;;;;;;-142.75;100.00;78129.63;5012799;28;20025;-68
2023/04/17 10:15:14;;;;;;;28.42;15.63;;;;;;;-142.75;100.00;78131.59;5010307;28;20021;-69
2023/04/17 10:17:40;;;;;;;27.15;15.05;;;;;;;-142.75;100.00;78125.69;5012976;28;20574;-71
2023/04/17 10:20:14;;;;;;;30.42;15.40;;;;;;;-142.75;100.00;78082.38;5013066;28;20045;-68
2023/04/17 10:22:40;;;;;;;29.15;14.95;;;;;;;-142.75;100.00;78039.03;5012982;28;20684;-69
2023/04/17 10:25:11;;;;;;;28.00;14.38;;;;;;;-142.75;100.00;78005.56;5012858;28;20018;-68
2023/04/17 10:27:37;;;;;;;27.42;13.88;;;;;;;-142.75;100.00;77960.28;5012320;28;20060;-68
2023/04/17 10:30:04;;;;;;;46.90;16.00;;;;;;;-142.75;100.00;77865.75;4995213;28;20506;-69
2023/04/17 10:32:31;;;;;;;38.70;15.75;;;;;;;-142.75;100.00;77867.72;5012349;28;20026;-68
2023/04/17 10:35:16;;;;;;;25.33;13.82;;;;;;;-142.75;100.00;77824.41;4995356;28;20489;-69
2023/04/17 10:37:47;;;;;;;82.55;22.10;;;;;;;-142.75;100.00;77814.56;5012322;28;20026;-69
2023/04/17 10:40:28;;;;;;;38.38;14.75;;;;;;;-142.75;100.00;77745.66;5012706;28;20068;-68
2023/04/17 10:43:05;;;;;;;24.10;13.00;;;;;;;-142.75;100.00;77716.09;5012069;28;20030;-68
2023/04/17 10:46:01;;;;;;;19.70;11.48;;;;;;;-142.75;100.00;77712.16;5008307;28;20018;-69
2023/04/17 10:48:48;;;;;;;20.45;11.57;;;;;;;-142.75;100.00;77788.97;5011579;28;20021;-68
2023/04/17 10:51:26;;;;;;;21.85;12.40;;;;;;;-142.75;100.00;77743.69;5009379;28;20022;-68